createdAt,value
2022-12-19T00:01:34.829Z,36.20
2022-12-19T00:04:08.104Z,32.55
2022-12-19T00:06:37.403Z,37.05
2022-12-19T00:09:05.366Z,25.80
2022-12-19T00:11:32.755Z,35.58
2022-12-19T00:13:59.856Z,33.60
2022-12-19T00:16:28.756Z,33.35
2022-12-19T00:18:58.495Z,32.88
2022-12-19T00:21:28.132Z,29.38
2022-12-19T00:23:55.311Z,32.95
2022-12-19T00:26:23.692Z,26.00
2022-12-19T00:29:14.296Z,35.97
2022-12-19T00:31:41.413Z,37.10
2022-12-19T00:34:09.301Z,36.47
2022-12-19T00:36:35.957Z,32.90
2022-12-19T00:39:08.131Z,36.97
2022-12-19T00:41:40.084Z,33.10
2022-12-19T00:44:14.228Z,35.55
2022-12-19T00:46:41.155Z,35.25
2022-12-19T00:49:08.088Z,38.15
2022-12-19T00:51:37.089Z,35.83
2022-12-19T00:54:05.331Z,35.53
2022-12-19T00:56:37.732Z,38.55
2022-12-19T00:59:07.126Z,31.58
2022-12-19T01:01:38.159Z,35.58
2022-12-19T01:06:53.997Z,40.70
2022-12-19T01:09:24.786Z,45.42
2022-12-19T01:12:10.404Z,43.53
2022-12-19T01:14:37.061Z,34.70
2022-12-19T01:17:03.837Z,40.08
2022-12-19T01:19:30.512Z,36.15
2022-12-19T01:21:57.155Z,41.88
2022-12-19T01:24:24.619Z,43.00
2022-12-19T01:26:51.312Z,41.70
2022-12-19T01:29:17.967Z,37.78
2022-12-19T01:31:44.694Z,42.83
2022-12-19T01:34:11.658Z,40.38
2022-12-19T01:36:40.167Z,37.00
2022-12-19T01:39:07.780Z,36.88
2022-12-19T01:41:35.416Z,38.28
2022-12-19T01:44:07.277Z,38.58
2022-12-19T01:46:47.775Z,45.80
2022-12-19T01:49:29.118Z,37.83
2022-12-19T01:51:58.801Z,39.30
2022-12-19T01:54:39.943Z,44.63
2022-12-19T01:57:13.707Z,44.03
2022-12-19T01:59:45.989Z,43.20
2022-12-19T02:02:48.728Z,39.90
2022-12-19T02:05:16.184Z,42.63
2022-12-19T02:07:44.149Z,43.45
2022-12-19T02:10:11.417Z,45.92
2022-12-19T02:12:41.601Z,43.97
2022-12-19T02:15:10.871Z,42.25
2022-12-19T02:17:52.617Z,49.28
2022-12-19T02:20:39.423Z,48.50
2022-12-19T02:23:18.397Z,48.88
2022-12-19T02:26:29.459Z,47.08
2022-12-19T02:28:56.279Z,47.15
2022-12-19T02:31:31.788Z,53.20
2022-12-19T02:34:41.400Z,49.35
2022-12-19T02:37:18.191Z,43.80
2022-12-19T02:40:01.925Z,51.33
2022-12-19T02:42:32.229Z,47.03
2022-12-19T02:45:05.940Z,50.33
2022-12-19T02:47:34.260Z,55.90
2022-12-19T02:50:03.014Z,44.40
2022-12-19T02:52:30.325Z,47.88
2022-12-19T02:55:06.524Z,51.92
2022-12-19T02:57:59.272Z,44.63
2022-12-19T03:00:28.567Z,49.60
2022-12-19T03:03:16.708Z,42.83
2022-12-19T03:05:55.840Z,47.15
2022-12-19T03:08:35.300Z,46.78
2022-12-19T03:11:13.335Z,47.92
2022-12-19T03:14:02.221Z,52.80
2022-12-19T03:16:29.210Z,59.33
2022-12-19T03:18:57.451Z,44.70
2022-12-19T03:21:31.460Z,54.95
2022-12-19T03:23:59.205Z,46.15
2022-12-19T03:26:30.160Z,54.05
2022-12-19T03:29:05.363Z,46.58
2022-12-19T03:31:33.940Z,50.10
2022-12-19T03:34:13.830Z,47.88
2022-12-19T03:36:45.376Z,50.05
2022-12-19T03:39:14.413Z,42.93
2022-12-19T03:42:03.111Z,50.15
2022-12-19T03:44:34.461Z,53.92
2022-12-19T03:47:13.019Z,52.92
2022-12-19T03:49:40.303Z,49.55
2022-12-19T03:52:20.886Z,60.08
2022-12-19T03:55:00.775Z,53.65
2022-12-19T03:57:39.802Z,52.72
2022-12-19T04:00:11.195Z,54.67
2022-12-19T04:02:49.963Z,45.17
2022-12-19T04:05:23.358Z,50.85
2022-12-19T04:07:53.566Z,50.25
2022-12-19T04:10:24.173Z,49.58
2022-12-19T04:12:59.225Z,54.15
2022-12-19T04:15:49.512Z,55.13
2022-12-19T04:18:18.805Z,48.10
2022-12-19T04:20:52.755Z,58.45
2022-12-19T04:23:27.255Z,50.20
2022-12-19T04:26:00.433Z,48.30
2022-12-19T04:28:34.773Z,45.92
2022-12-19T04:31:02.675Z,48.13
2022-12-19T04:33:29.535Z,54.08
2022-12-19T04:35:56.255Z,48.17
2022-12-19T04:38:23.094Z,49.47
2022-12-19T04:40:49.775Z,51.28
2022-12-19T04:43:16.455Z,55.55
2022-12-19T04:45:43.221Z,41.45
2022-12-19T04:48:10.117Z,44.97
2022-12-19T04:50:36.830Z,47.05
2022-12-19T04:53:03.629Z,52.65
2022-12-19T04:55:30.272Z,50.90
2022-12-19T04:57:56.991Z,50.67
2022-12-19T05:00:23.657Z,53.30
2022-12-19T05:02:50.609Z,52.95
2022-12-19T05:05:18.893Z,51.40
2022-12-19T05:07:47.044Z,53.22
2022-12-19T05:10:13.923Z,50.63
2022-12-19T05:12:40.584Z,56.13
2022-12-19T05:15:07.779Z,50.97
2022-12-19T05:17:34.471Z,63.80
2022-12-19T05:20:01.187Z,60.25
2022-12-19T05:22:28.010Z,53.38
2022-12-19T05:24:54.732Z,59.63
2022-12-19T05:27:21.513Z,59.67
2022-12-19T05:29:48.187Z,54.75
2022-12-19T05:32:14.823Z,56.90
2022-12-19T05:34:41.509Z,61.15
2022-12-19T05:37:08.179Z,56.03
2022-12-19T05:39:35.160Z,70.00
2022-12-19T05:42:01.825Z,59.85
2022-12-19T05:44:28.511Z,60.15
2022-12-19T05:46:55.171Z,56.55
2022-12-19T05:49:21.829Z,58.05
2022-12-19T05:51:49.075Z,51.55
2022-12-19T05:54:15.879Z,59.60
2022-12-19T05:56:42.546Z,60.58
2022-12-19T05:59:09.266Z,48.75
2022-12-19T06:01:36.006Z,51.08
2022-12-19T06:04:04.055Z,56.55
2022-12-19T06:06:30.689Z,48.55
2022-12-19T06:08:58.950Z,51.97
2022-12-19T06:11:27.120Z,49.40
2022-12-19T06:13:54.062Z,44.97
2022-12-19T06:16:22.605Z,57.38
2022-12-19T06:18:49.506Z,54.15
2022-12-19T06:21:18.527Z,50.05
2022-12-19T06:23:45.663Z,58.42
2022-12-19T06:26:19.121Z,51.80
2022-12-19T06:28:47.498Z,47.78
2022-12-19T06:31:15.188Z,58.00
2022-12-19T06:33:42.088Z,51.60
2022-12-19T06:36:16.408Z,52.53
2022-12-19T06:38:43.080Z,54.97
2022-12-19T06:41:29.695Z,50.67
2022-12-19T06:44:00.448Z,57.60
2022-12-19T06:46:27.469Z,49.97
2022-12-19T06:48:54.376Z,48.17
2022-12-19T06:51:21.207Z,46.63
2022-12-19T06:53:48.262Z,49.50
2022-12-19T06:56:16.188Z,52.05
2022-12-19T06:58:43.222Z,52.97
2022-12-19T07:01:21.158Z,48.30
2022-12-19T07:03:49.273Z,52.63
2022-12-19T07:06:16.199Z,50.05
2022-12-19T07:08:43.149Z,51.05
2022-12-19T07:11:10.645Z,48.70
2022-12-19T07:13:37.343Z,54.88
2022-12-19T07:16:05.535Z,52.45
2022-12-19T07:18:36.068Z,55.28
2022-12-19T07:21:03.517Z,50.05
2022-12-19T07:23:30.413Z,54.92
2022-12-19T07:25:57.977Z,65.63
2022-12-19T07:28:24.984Z,52.55
2022-12-19T07:30:51.625Z,64.18
2022-12-19T07:33:21.661Z,67.22
2022-12-19T07:35:48.695Z,62.72
2022-12-19T07:38:15.544Z,56.00
2022-12-19T07:40:42.198Z,58.45
2022-12-19T07:43:08.895Z,61.60
2022-12-19T07:45:38.451Z,58.83
2022-12-19T07:48:07.209Z,94.43
2022-12-19T07:50:34.220Z,88.10
2022-12-19T07:53:01.171Z,77.78
2022-12-19T07:55:28.256Z,77.57
2022-12-19T07:57:55.687Z,80.55
2022-12-19T08:00:23.186Z,73.97
2022-12-19T08:02:49.972Z,70.60
2022-12-19T08:05:17.009Z,66.60
2022-12-19T08:07:43.676Z,60.78
2022-12-19T08:10:12.566Z,67.10
2022-12-19T08:12:39.601Z,61.28
2022-12-19T08:15:07.459Z,60.83
2022-12-19T08:17:35.312Z,69.18
2022-12-19T08:20:02.043Z,74.45
2022-12-19T08:22:31.910Z,61.67
2022-12-19T08:24:58.593Z,71.75
2022-12-19T08:27:26.061Z,65.00
2022-12-19T08:29:53.134Z,56.50
2022-12-19T08:32:21.428Z,64.82
2022-12-19T08:34:49.023Z,55.75
2022-12-19T08:37:15.732Z,63.90
2022-12-19T08:39:42.419Z,61.65
2022-12-19T08:42:09.121Z,64.30
2022-12-19T08:44:35.803Z,61.28
2022-12-19T08:47:02.760Z,53.28
2022-12-19T08:49:29.647Z,58.10
2022-12-19T08:51:56.345Z,75.35
2022-12-19T08:54:23.119Z,67.30
2022-12-19T08:56:50.038Z,63.05
2022-12-19T08:59:23.976Z,62.88
2022-12-19T09:01:57.580Z,61.45
2022-12-19T09:05:57.510Z,59.97
2022-12-19T09:07:11.089Z,56.38
2022-12-19T09:09:37.813Z,62.58
2022-12-19T09:12:04.506Z,64.45
2022-12-19T09:14:35.070Z,62.40
2022-12-19T09:17:01.813Z,54.65
2022-12-19T09:19:31.773Z,61.45
2022-12-19T09:21:58.442Z,72.10
2022-12-19T09:24:25.214Z,70.65
2022-12-19T09:26:51.956Z,71.20
2022-12-19T09:29:20.328Z,72.28
2022-12-19T09:31:56.519Z,68.40
2022-12-19T09:34:36.770Z,62.30
2022-12-19T09:37:15.886Z,63.40
2022-12-19T09:39:48.202Z,62.67
2022-12-19T09:42:17.964Z,60.17
2022-12-19T09:45:05.638Z,47.72
2022-12-19T09:47:35.825Z,60.25
2022-12-19T09:50:03.086Z,62.50
2022-12-19T09:52:47.604Z,58.17
2022-12-19T09:55:23.976Z,55.45
2022-12-19T09:57:53.848Z,66.65
2022-12-19T10:00:22.469Z,54.15
2022-12-19T10:03:02.418Z,57.92
2022-12-19T10:07:09.439Z,59.78
2022-12-19T10:08:45.680Z,65.65
2022-12-19T10:12:44.384Z,57.67
2022-12-19T10:14:47.176Z,65.82
2022-12-19T10:17:34.581Z,68.60
2022-12-19T10:20:23.658Z,61.80
2022-12-19T10:23:11.649Z,59.63
2022-12-19T10:26:13.716Z,61.15
2022-12-19T10:29:12.271Z,61.57
2022-12-19T10:32:11.121Z,58.67
2022-12-19T10:34:41.814Z,56.78
2022-12-19T10:37:32.744Z,54.95
2022-12-19T10:40:15.991Z,51.80
2022-12-19T10:42:56.937Z,59.67
2022-12-19T10:45:30.927Z,59.78
2022-12-19T10:47:58.451Z,60.50
2022-12-19T10:50:27.715Z,64.82
2022-12-19T10:52:56.833Z,62.65
2022-12-19T10:55:47.668Z,61.13
2022-12-19T10:58:21.753Z,64.13
2022-12-19T11:01:05.851Z,59.90
2022-12-19T11:03:34.537Z,58.00
2022-12-19T11:06:03.235Z,54.33
2022-12-19T11:08:38.921Z,63.58
2022-12-19T11:14:37.832Z,50.53
2022-12-19T11:17:44.993Z,56.90
2022-12-19T11:22:07.356Z,56.38
2022-12-19T11:29:30.477Z,60.35
2022-12-19T11:29:33.695Z,55.85
2022-12-19T11:29:35.025Z,59.10
2022-12-19T11:30:44.318Z,60.20
2022-12-19T11:33:28.121Z,56.53
2022-12-19T11:35:58.524Z,60.05
2022-12-19T11:38:52.974Z,53.38
2022-12-19T11:41:28.751Z,57.85
2022-12-19T11:44:02.193Z,55.25
2022-12-19T11:46:38.687Z,53.50
2022-12-19T11:49:23.542Z,56.53
2022-12-19T11:52:02.931Z,64.97
2022-12-19T11:55:06.382Z,54.55
2022-12-19T11:57:33.298Z,56.60
2022-12-19T12:00:05.003Z,55.55
2022-12-19T12:02:50.919Z,60.00
2022-12-19T12:05:35.678Z,56.05
2022-12-19T12:09:41.866Z,46.30
2022-12-19T12:17:19.506Z,54.22
2022-12-19T12:30:14.651Z,58.33
2022-12-19T12:31:21.173Z,58.08
2022-12-19T12:31:46.811Z,69.50
2022-12-19T12:31:50.062Z,60.42
2022-12-19T12:31:50.447Z,64.80
2022-12-19T12:35:48.783Z,58.67
2022-12-19T12:38:51.440Z,56.10
2022-12-19T12:41:47.394Z,50.13
2022-12-19T12:44:15.290Z,60.05
2022-12-19T12:47:06.821Z,56.60
2022-12-19T12:50:00.469Z,56.80
2022-12-19T12:52:36.085Z,54.42
2022-12-19T12:55:06.174Z,54.63
2022-12-19T12:57:37.067Z,56.47
2022-12-19T13:00:16.548Z,49.58
2022-12-19T13:02:47.664Z,58.28
2022-12-19T13:05:35.891Z,66.18
2022-12-19T13:08:22.973Z,63.60
2022-12-19T13:10:55.698Z,67.53
2022-12-19T13:13:56.297Z,63.65
2022-12-19T13:16:45.480Z,66.82
2022-12-19T13:19:27.939Z,64.63
2022-12-19T13:22:04.983Z,70.22
2022-12-19T13:24:39.227Z,71.05
2022-12-19T13:27:21.238Z,58.92
2022-12-19T13:30:07.312Z,55.70
2022-12-19T13:32:54.125Z,60.42
2022-12-19T13:36:24.464Z,69.68
2022-12-19T13:39:55.643Z,60.80
2022-12-19T13:41:48.185Z,58.65
2022-12-19T13:44:19.707Z,53.70
2022-12-19T13:46:46.867Z,63.30
2022-12-19T13:49:19.933Z,62.88
2022-12-19T13:51:55.150Z,58.47
2022-12-19T13:54:34.793Z,65.50
2022-12-19T13:57:09.272Z,53.28
2022-12-19T13:59:39.925Z,53.75
2022-12-19T14:02:25.738Z,56.50
2022-12-19T14:04:52.629Z,58.60
2022-12-19T14:07:24.940Z,54.90
2022-12-19T14:11:33.720Z,55.50
2022-12-19T14:13:52.961Z,59.33
2022-12-19T14:15:55.229Z,63.90
2022-12-19T14:18:42.935Z,55.60
2022-12-19T14:22:03.706Z,53.03
2022-12-19T14:24:10.274Z,52.08
2022-12-19T14:28:26.678Z,52.95
2022-12-19T14:29:45.451Z,59.53
2022-12-19T14:33:45.484Z,52.08
2022-12-19T14:36:07.809Z,54.35
2022-12-19T14:39:21.050Z,62.43
2022-12-19T14:41:07.891Z,56.92
2022-12-19T14:43:57.772Z,56.28
2022-12-19T14:54:08.027Z,55.78
2022-12-19T14:54:17.437Z,55.25
2022-12-19T14:54:44.435Z,57.53
2022-12-19T14:56:16.169Z,57.58
2022-12-19T14:58:52.656Z,57.90
2022-12-19T15:01:33.158Z,59.00
2022-12-19T15:04:51.788Z,51.17
2022-12-19T15:07:07.550Z,57.60
2022-12-19T15:11:05.089Z,58.28
2022-12-19T15:14:46.547Z,65.13
2022-12-19T15:16:01.612Z,57.63
2022-12-19T15:18:42.671Z,62.28
2022-12-19T15:21:14.610Z,60.65
2022-12-19T15:23:44.310Z,58.38
2022-12-19T15:26:35.343Z,54.80
2022-12-19T15:29:06.959Z,55.28
2022-12-19T15:31:42.527Z,60.87
2022-12-19T15:34:34.201Z,54.42
2022-12-19T15:39:30.311Z,45.78
2022-12-19T15:42:00.585Z,47.97
2022-12-19T15:44:34.013Z,43.72
2022-12-19T15:47:02.443Z,52.58
2022-12-19T15:49:29.240Z,59.00
2022-12-19T15:51:55.945Z,52.65
2022-12-19T15:54:48.012Z,52.08
2022-12-19T15:57:19.809Z,56.15
2022-12-19T15:59:46.736Z,48.47
2022-12-19T16:02:27.846Z,53.00
2022-12-19T16:05:03.498Z,62.42
2022-12-19T16:07:30.873Z,56.83
2022-12-19T16:09:57.625Z,72.85
2022-12-19T16:12:38.715Z,68.68
2022-12-19T16:15:13.578Z,70.47
2022-12-19T16:17:40.407Z,59.05
2022-12-19T16:20:17.101Z,64.93
2022-12-19T16:22:44.069Z,52.58
2022-12-19T16:25:12.831Z,52.30
2022-12-19T16:27:40.236Z,54.20
2022-12-19T16:30:20.969Z,71.85
2022-12-19T16:32:49.027Z,55.85
2022-12-19T16:35:28.978Z,60.20
2022-12-19T16:38:06.017Z,57.78
2022-12-19T16:40:33.164Z,57.83
2022-12-19T16:43:13.899Z,65.25
2022-12-19T16:45:40.699Z,53.72
2022-12-19T16:48:22.544Z,53.00
2022-12-19T16:50:50.047Z,55.85
2022-12-19T16:53:17.390Z,60.90
2022-12-19T16:55:45.818Z,71.22
2022-12-19T16:58:20.291Z,65.00
2022-12-19T17:00:48.116Z,63.75
2022-12-19T17:03:37.269Z,59.95
2022-12-19T17:06:04.437Z,58.38
2022-12-19T17:08:32.453Z,60.95
2022-12-19T17:10:59.424Z,62.83
2022-12-19T17:13:26.720Z,58.45
2022-12-19T17:15:57.167Z,59.40
2022-12-19T17:18:34.723Z,67.35
2022-12-19T17:21:01.774Z,53.88
2022-12-19T17:23:30.522Z,56.03
2022-12-19T17:25:57.962Z,58.35
2022-12-19T17:28:24.676Z,55.50
2022-12-19T17:30:54.529Z,49.47
2022-12-19T17:33:23.799Z,48.83
2022-12-19T17:35:50.557Z,55.92
2022-12-19T17:38:17.823Z,53.42
2022-12-19T17:40:45.435Z,53.25
2022-12-19T17:43:12.879Z,61.95
2022-12-19T17:45:40.522Z,51.53
2022-12-19T17:48:19.293Z,56.22
2022-12-19T17:50:46.013Z,56.92
2022-12-19T17:53:14.445Z,58.00
2022-12-19T17:55:41.535Z,53.60
2022-12-19T17:58:12.432Z,51.70
2022-12-19T18:00:40.095Z,54.65
2022-12-19T18:03:18.613Z,45.75
2022-12-19T18:05:45.504Z,54.45
2022-12-19T18:08:45.175Z,47.58
2022-12-19T18:11:23.677Z,47.17
2022-12-19T18:13:51.688Z,48.47
2022-12-19T18:16:24.684Z,46.10
2022-12-19T18:18:51.572Z,55.38
2022-12-19T18:21:21.246Z,47.05
2022-12-19T18:23:48.874Z,54.42
2022-12-19T18:26:15.592Z,43.58
2022-12-19T18:28:42.555Z,44.53
2022-12-19T18:31:25.565Z,44.83
2022-12-19T18:33:54.475Z,46.08
2022-12-19T18:36:24.023Z,58.47
2022-12-19T18:38:51.688Z,47.47
2022-12-19T18:41:19.857Z,43.47
2022-12-19T18:43:47.017Z,46.05
2022-12-19T18:46:16.340Z,46.17
2022-12-19T18:48:45.017Z,43.58
2022-12-19T18:51:17.233Z,48.10
2022-12-19T18:53:45.334Z,48.60
2022-12-19T18:56:12.060Z,43.35
2022-12-19T18:58:38.818Z,53.58
2022-12-19T19:01:11.394Z,52.47
2022-12-19T19:03:40.956Z,47.97
2022-12-19T19:06:19.858Z,53.28
2022-12-19T19:08:46.783Z,42.22
2022-12-19T19:11:26.055Z,44.22
2022-12-19T19:13:53.502Z,40.80
2022-12-19T19:16:25.358Z,42.08
2022-12-19T19:18:54.270Z,42.55
2022-12-19T19:21:24.662Z,46.03
2022-12-19T19:24:15.109Z,38.67
2022-12-19T19:26:41.765Z,46.83
2022-12-19T19:29:09.791Z,43.45
2022-12-19T19:31:39.425Z,49.58
2022-12-19T19:34:13.444Z,43.97
2022-12-19T19:36:44.737Z,44.33
2022-12-19T19:39:11.777Z,42.72
2022-12-19T19:41:38.389Z,43.53
2022-12-19T19:44:05.094Z,44.20
2022-12-19T19:46:32.582Z,37.95
2022-12-19T19:48:59.459Z,48.45
2022-12-19T19:51:28.832Z,45.00
2022-12-19T19:53:56.150Z,46.80
2022-12-19T19:56:22.852Z,50.35
2022-12-19T19:58:49.633Z,48.45
2022-12-19T20:01:16.464Z,45.88
2022-12-19T20:03:44.874Z,43.67
2022-12-19T20:06:12.545Z,46.72
2022-12-19T20:08:40.647Z,43.35
2022-12-19T20:11:10.695Z,42.22
2022-12-19T20:13:38.438Z,48.03
2022-12-19T20:16:11.339Z,42.25
2022-12-19T20:18:40.060Z,43.60
2022-12-19T20:21:13.493Z,43.47
2022-12-19T20:23:42.853Z,40.92
2022-12-19T20:26:11.472Z,42.92
2022-12-19T20:28:45.622Z,37.45
2022-12-19T20:31:14.934Z,41.22
2022-12-19T20:33:41.775Z,41.55
2022-12-19T20:36:10.721Z,39.80
2022-12-19T20:38:38.249Z,43.55
2022-12-19T20:41:05.246Z,41.65
2022-12-19T20:43:32.180Z,40.22
2022-12-19T20:46:07.214Z,37.47
2022-12-19T20:48:34.141Z,37.85
2022-12-19T20:51:02.745Z,41.55
2022-12-19T20:53:29.377Z,42.63
2022-12-19T20:55:58.914Z,51.85
2022-12-19T20:58:27.618Z,43.10
2022-12-19T21:00:56.185Z,43.25
2022-12-19T21:03:29.174Z,40.15
2022-12-19T21:05:57.097Z,41.03
2022-12-19T21:08:25.448Z,37.78
2022-12-19T21:10:53.094Z,40.67
2022-12-19T21:13:21.931Z,40.65
2022-12-19T21:16:09.792Z,36.25
2022-12-19T21:18:38.116Z,31.63
2022-12-19T21:21:06.412Z,39.63
2022-12-19T21:23:33.275Z,38.90
2022-12-19T21:26:01.781Z,39.25
2022-12-19T21:28:29.084Z,45.08
2022-12-19T21:31:12.112Z,40.75
2022-12-19T21:33:38.787Z,39.22
2022-12-19T21:36:10.721Z,39.10
2022-12-19T21:38:38.037Z,38.63
2022-12-19T21:41:06.712Z,35.88
2022-12-19T21:43:34.864Z,40.28
2022-12-19T21:46:06.925Z,39.72
2022-12-19T21:48:38.576Z,40.35
2022-12-19T21:51:06.757Z,40.53
2022-12-19T21:53:34.144Z,40.92
2022-12-19T21:56:03.841Z,42.90
2022-12-19T21:58:30.933Z,38.92
2022-12-19T22:01:08.297Z,40.10
2022-12-19T22:03:36.031Z,39.40
2022-12-19T22:06:03.162Z,43.70
2022-12-19T22:08:30.038Z,44.50
2022-12-19T22:10:56.792Z,44.10
2022-12-19T22:13:23.615Z,39.42
2022-12-19T22:15:52.584Z,38.72
2022-12-19T22:18:19.714Z,43.28
2022-12-19T22:20:46.600Z,42.17
2022-12-19T22:23:13.786Z,43.72
2022-12-19T22:25:41.246Z,40.50
2022-12-19T22:28:08.261Z,40.42
2022-12-19T22:30:35.838Z,43.40
2022-12-19T22:33:04.565Z,38.80
2022-12-19T22:35:33.888Z,37.63
2022-12-19T22:38:00.557Z,38.83
2022-12-19T22:40:27.450Z,35.72
2022-12-19T22:42:54.136Z,42.55
2022-12-19T22:45:20.838Z,37.45
2022-12-19T22:47:47.463Z,39.72
2022-12-19T22:50:14.402Z,35.90
2022-12-19T22:52:41.154Z,39.28
2022-12-19T22:55:08.501Z,37.92
2022-12-19T22:57:35.171Z,39.97
2022-12-19T23:00:01.982Z,40.13
2022-12-19T23:02:28.778Z,45.33
2022-12-19T23:04:55.618Z,58.92
2022-12-19T23:07:22.499Z,50.00
2022-12-19T23:09:49.291Z,48.60
2022-12-19T23:12:15.933Z,62.80
2022-12-19T23:14:42.659Z,46.53
2022-12-19T23:17:09.416Z,53.55
2022-12-19T23:19:36.265Z,50.08
2022-12-19T23:22:03.316Z,51.67
2022-12-19T23:24:30.436Z,54.90
2022-12-19T23:26:57.190Z,54.53
2022-12-19T23:29:24.002Z,52.67
2022-12-19T23:31:50.703Z,49.72
2022-12-19T23:34:17.563Z,40.30
2022-12-19T23:37:10.096Z,47.40
2022-12-19T23:39:31.727Z,45.13
2022-12-19T23:41:58.581Z,41.97
2022-12-19T23:44:25.507Z,44.67
2022-12-19T23:46:52.164Z,38.17
2022-12-19T23:49:18.829Z,44.08
2022-12-19T23:51:45.571Z,38.70
2022-12-19T23:54:12.435Z,40.67
2022-12-19T23:56:39.512Z,41.10
2022-12-19T23:59:06.401Z,38.30
